sensor_id;sensor_type;location;lat;lon;timestamp;P1;durP1;ratioP1;P2;durP2;ratioP2
76712;SDS011;65640;43.154;25.658;2023-06-22T00:01:03;10.57;;;9.07;;
76712;SDS011;65640;43.154;25.658;2023-06-22T00:03:28;10.30;;;9.38;;
76712;SDS011;65640;43.154;25.658;2023-06-22T00:05:54;14.57;;;10.32;;
76712;SDS011;65640;43.154;25.658;2023-06-22T00:08:19;10.75;;;9.85;;
76712;SDS011;65640;43.154;25.658;2023-06-22T00:10:45;10.82;;;9.82;;
76712;SDS011;65640;43.154;25.658;2023-06-22T00:13:11;10.75;;;9.63;;
76712;SDS011;65640;43.154;25.658;2023-06-22T00:15:39;10.75;;;9.88;;
76712;SDS011;65640;43.154;25.658;2023-06-22T00:18:08;11.82;;;9.65;;
76712;SDS011;65640;43.154;25.658;2023-06-22T00:20:35;10.85;;;9.68;;
76712;SDS011;65640;43.154;25.658;2023-06-22T00:23:05;10.77;;;9.77;;
76712;SDS011;65640;43.154;25.658;2023-06-22T00:25:36;9.65;;;8.95;;
76712;SDS011;65640;43.154;25.658;2023-06-22T00:28:03;10.60;;;9.70;;
76712;SDS011;65640;43.154;25.658;2023-06-22T00:30:30;10.93;;;9.82;;
76712;SDS011;65640;43.154;25.658;2023-06-22T00:32:55;11.05;;;10.23;;
76712;SDS011;65640;43.154;25.658;2023-06-22T00:35:21;13.68;;;10.23;;
76712;SDS011;65640;43.154;25.658;2023-06-22T00:37:46;11.35;;;10.23;;
76712;SDS011;65640;43.154;25.658;2023-06-22T00:40:12;10.57;;;9.68;;
76712;SDS011;65640;43.154;25.658;2023-06-22T00:42:39;12.55;;;9.18;;
76712;SDS011;65640;43.154;25.658;2023-06-22T00:45:05;12.00;;;9.25;;
76712;SDS011;65640;43.154;25.658;2023-06-22T00:47:31;9.65;;;8.60;;
76712;SDS011;65640;43.154;25.658;2023-06-22T00:49:57;10.65;;;9.50;;
76712;SDS011;65640;43.154;25.658;2023-06-22T00:52:23;10.98;;;8.88;;
76712;SDS011;65640;43.154;25.658;2023-06-22T00:54:54;9.90;;;9.00;;
76712;SDS011;65640;43.154;25.658;2023-06-22T00:59:46;9.63;;;8.75;;
76712;SDS011;65640;43.154;25.658;2023-06-22T01:02:13;12.10;;;9.43;;
76712;SDS011;65640;43.154;25.658;2023-06-22T01:04:39;11.57;;;8.68;;
76712;SDS011;65640;43.154;25.658;2023-06-22T01:12:24;10.88;;;9.88;;
76712;SDS011;65640;43.154;25.658;2023-06-22T01:14:55;10.52;;;9.45;;
76712;SDS011;65640;43.154;25.658;2023-06-22T01:17:43;10.77;;;9.13;;
76712;SDS011;65640;43.154;25.658;2023-06-22T01:20:09;10.18;;;9.25;;
76712;SDS011;65640;43.154;25.658;2023-06-22T01:22:57;11.90;;;8.90;;
76712;SDS011;65640;43.154;25.658;2023-06-22T01:26:17;10.02;;;9.20;;
76712;SDS011;65640;43.154;25.658;2023-06-22T01:28:49;9.63;;;8.73;;
76712;SDS011;65640;43.154;25.658;2023-06-22T01:31:18;10.27;;;9.27;;
76712;SDS011;65640;43.154;25.658;2023-06-22T01:33:48;12.55;;;9.02;;
76712;SDS011;65640;43.154;25.658;2023-06-22T01:36:17;10.88;;;9.48;;
76712;SDS011;65640;43.154;25.658;2023-06-22T01:38:44;9.23;;;8.52;;
76712;SDS011;65640;43.154;25.658;2023-06-22T01:41:11;8.63;;;7.90;;
76712;SDS011;65640;43.154;25.658;2023-06-22T01:43:37;10.27;;;8.85;;
76712;SDS011;65640;43.154;25.658;2023-06-22T01:48:29;8.85;;;8.05;;
76712;SDS011;65640;43.154;25.658;2023-06-22T01:50:55;13.70;;;9.35;;
76712;SDS011;65640;43.154;25.658;2023-06-22T01:53:24;11.68;;;9.85;;
76712;SDS011;65640;43.154;25.658;2023-06-22T01:55:49;9.80;;;8.52;;
76712;SDS011;65640;43.154;25.658;2023-06-22T01:58:15;9.05;;;8.25;;
76712;SDS011;65640;43.154;25.658;2023-06-22T02:00:44;9.00;;;8.40;;
76712;SDS011;65640;43.154;25.658;2023-06-22T02:03:19;10.48;;;8.32;;
76712;SDS011;65640;43.154;25.658;2023-06-22T02:05:50;9.57;;;8.77;;
76712;SDS011;65640;43.154;25.658;2023-06-22T02:08:26;9.30;;;8.50;;
76712;SDS011;65640;43.154;25.658;2023-06-22T02:10:55;17.48;;;9.48;;
76712;SDS011;65640;43.154;25.658;2023-06-22T02:13:24;12.65;;;8.15;;
76712;SDS011;65640;43.154;25.658;2023-06-22T02:18:16;8.85;;;8.05;;
76712;SDS011;65640;43.154;25.658;2023-06-22T02:20:41;9.65;;;7.40;;
76712;SDS011;65640;43.154;25.658;2023-06-22T02:23:07;12.93;;;8.88;;
76712;SDS011;65640;43.154;25.658;2023-06-22T02:25:33;8.90;;;8.20;;
76712;SDS011;65640;43.154;25.658;2023-06-22T02:27:59;9.90;;;8.77;;
76712;SDS011;65640;43.154;25.658;2023-06-22T02:30:24;9.45;;;8.55;;
76712;SDS011;65640;43.154;25.658;2023-06-22T02:32:50;9.73;;;8.52;;
76712;SDS011;65640;43.154;25.658;2023-06-22T02:35:23;11.32;;;8.68;;
76712;SDS011;65640;43.154;25.658;2023-06-22T02:40:16;9.18;;;8.48;;
76712;SDS011;65640;43.154;25.658;2023-06-22T02:42:42;15.77;;;8.52;;
76712;SDS011;65640;43.154;25.658;2023-06-22T02:45:07;12.07;;;9.50;;
76712;SDS011;65640;43.154;25.658;2023-06-22T02:47:33;9.82;;;8.68;;
76712;SDS011;65640;43.154;25.658;2023-06-22T02:49:59;12.77;;;9.02;;
76712;SDS011;65640;43.154;25.658;2023-06-22T02:52:24;9.93;;;8.93;;
76712;SDS011;65640;43.154;25.658;2023-06-22T02:54:49;10.65;;;8.75;;
76712;SDS011;65640;43.154;25.658;2023-06-22T02:57:15;10.10;;;9.10;;
76712;SDS011;65640;43.154;25.658;2023-06-22T02:59:40;11.95;;;8.50;;
76712;SDS011;65640;43.154;25.658;2023-06-22T03:02:07;12.38;;;9.18;;
76712;SDS011;65640;43.154;25.658;2023-06-22T03:04:33;9.00;;;8.15;;
76712;SDS011;65640;43.154;25.658;2023-06-22T03:06:59;9.13;;;8.23;;
76712;SDS011;65640;43.154;25.658;2023-06-22T03:09:26;12.93;;;8.10;;
76712;SDS011;65640;43.154;25.658;2023-06-22T03:11:53;9.35;;;8.55;;
76712;SDS011;65640;43.154;25.658;2023-06-22T03:14:21;11.43;;;9.45;;
76712;SDS011;65640;43.154;25.658;2023-06-22T03:16:46;10.15;;;9.25;;
76712;SDS011;65640;43.154;25.658;2023-06-22T03:19:12;10.55;;;8.52;;
76712;SDS011;65640;43.154;25.658;2023-06-22T03:24:04;11.57;;;9.00;;
76712;SDS011;65640;43.154;25.658;2023-06-22T03:26:30;11.45;;;9.15;;
76712;SDS011;65640;43.154;25.658;2023-06-22T03:28:56;10.80;;;9.70;;
76712;SDS011;65640;43.154;25.658;2023-06-22T03:31:21;10.07;;;9.07;;
76712;SDS011;65640;43.154;25.658;2023-06-22T03:33:48;9.50;;;8.50;;
76712;SDS011;65640;43.154;25.658;2023-06-22T03:36:14;12.13;;;9.63;;
76712;SDS011;65640;43.154;25.658;2023-06-22T03:38:44;10.85;;;9.77;;
76712;SDS011;65640;43.154;25.658;2023-06-22T03:41:10;10.63;;;9.52;;
76712;SDS011;65640;43.154;25.658;2023-06-22T03:43:35;12.82;;;9.80;;
76712;SDS011;65640;43.154;25.658;2023-06-22T03:46:01;9.13;;;8.32;;
76712;SDS011;65640;43.154;25.658;2023-06-22T03:48:26;12.27;;;8.95;;
76712;SDS011;65640;43.154;25.658;2023-06-22T03:50:51;20.65;;;8.88;;
76712;SDS011;65640;43.154;25.658;2023-06-22T03:53:17;10.57;;;9.32;;
76712;SDS011;65640;43.154;25.658;2023-06-22T03:58:15;9.75;;;8.70;;
76712;SDS011;65640;43.154;25.658;2023-06-22T04:00:44;10.90;;;9.32;;
76712;SDS011;65640;43.154;25.658;2023-06-22T04:03:14;14.90;;;9.82;;
76712;SDS011;65640;43.154;25.658;2023-06-22T04:05:40;10.25;;;9.15;;
76712;SDS011;65640;43.154;25.658;2023-06-22T04:08:06;15.32;;;9.52;;
76712;SDS011;65640;43.154;25.658;2023-06-22T04:10:31;14.07;;;9.65;;
76712;SDS011;65640;43.154;25.658;2023-06-22T04:12:57;10.45;;;9.45;;
76712;SDS011;65640;43.154;25.658;2023-06-22T04:15:22;12.70;;;9.90;;
76712;SDS011;65640;43.154;25.658;2023-06-22T04:17:48;10.40;;;9.35;;
76712;SDS011;65640;43.154;25.658;2023-06-22T04:20:13;10.65;;;9.43;;
76712;SDS011;65640;43.154;25.658;2023-06-22T04:22:39;10.75;;;9.75;;
76712;SDS011;65640;43.154;25.658;2023-06-22T04:25:05;12.27;;;10.00;;
76712;SDS011;65640;43.154;25.658;2023-06-22T04:27:32;10.52;;;9.68;;
76712;SDS011;65640;43.154;25.658;2023-06-22T04:30:03;16.40;;;9.57;;
76712;SDS011;65640;43.154;25.658;2023-06-22T04:32:29;12.77;;;9.60;;
76712;SDS011;65640;43.154;25.658;2023-06-22T04:34:54;10.52;;;9.32;;
76712;SDS011;65640;43.154;25.658;2023-06-22T04:37:19;11.00;;;10.05;;
76712;SDS011;65640;43.154;25.658;2023-06-22T04:39:48;10.48;;;9.40;;
76712;SDS011;65640;43.154;25.658;2023-06-22T04:42:14;11.77;;;9.30;;
76712;SDS011;65640;43.154;25.658;2023-06-22T04:44:40;11.45;;;10.10;;
76712;SDS011;65640;43.154;25.658;2023-06-22T04:47:06;11.05;;;9.98;;
76712;SDS011;65640;43.154;25.658;2023-06-22T04:49:33;11.40;;;9.63;;
76712;SDS011;65640;43.154;25.658;2023-06-22T04:52:03;11.63;;;9.68;;
76712;SDS011;65640;43.154;25.658;2023-06-22T04:54:30;10.30;;;9.43;;
76712;SDS011;65640;43.154;25.658;2023-06-22T04:56:59;9.60;;;8.57;;
76712;SDS011;65640;43.154;25.658;2023-06-22T04:59:30;10.98;;;9.43;;
76712;SDS011;65640;43.154;25.658;2023-06-22T05:01:59;11.50;;;9.63;;
76712;SDS011;65640;43.154;25.658;2023-06-22T05:04:27;12.13;;;9.68;;
76712;SDS011;65640;43.154;25.658;2023-06-22T05:06:53;10.63;;;9.65;;
76712;SDS011;65640;43.154;25.658;2023-06-22T05:09:19;13.63;;;9.73;;
76712;SDS011;65640;43.154;25.658;2023-06-22T05:11:46;10.85;;;9.98;;
76712;SDS011;65640;43.154;25.658;2023-06-22T05:14:11;11.20;;;10.23;;
76712;SDS011;65640;43.154;25.658;2023-06-22T05:16:37;11.15;;;9.68;;
76712;SDS011;65640;43.154;25.658;2023-06-22T05:19:03;12.20;;;10.25;;
76712;SDS011;65640;43.154;25.658;2023-06-22T05:21:29;11.15;;;10.13;;
76712;SDS011;65640;43.154;25.658;2023-06-22T05:23:55;10.30;;;9.30;;
76712;SDS011;65640;43.154;25.658;2023-06-22T05:26:24;13.02;;;9.93;;
76712;SDS011;65640;43.154;25.658;2023-06-22T05:28:50;10.88;;;9.77;;
76712;SDS011;65640;43.154;25.658;2023-06-22T05:31:16;9.98;;;8.95;;
76712;SDS011;65640;43.154;25.658;2023-06-22T05:33:42;10.43;;;9.43;;
76712;SDS011;65640;43.154;25.658;2023-06-22T05:36:09;11.05;;;9.13;;
76712;SDS011;65640;43.154;25.658;2023-06-22T05:38:35;11.95;;;10.13;;
76712;SDS011;65640;43.154;25.658;2023-06-22T05:41:01;12.95;;;10.13;;
76712;SDS011;65640;43.154;25.658;2023-06-22T05:43:27;10.38;;;9.38;;
76712;SDS011;65640;43.154;25.658;2023-06-22T05:45:52;10.43;;;9.48;;
76712;SDS011;65640;43.154;25.658;2023-06-22T05:48:18;10.20;;;9.25;;
76712;SDS011;65640;43.154;25.658;2023-06-22T05:50:43;10.48;;;9.55;;
76712;SDS011;65640;43.154;25.658;2023-06-22T05:53:08;10.20;;;9.18;;
76712;SDS011;65640;43.154;25.658;2023-06-22T05:55:34;9.85;;;9.05;;
76712;SDS011;65640;43.154;25.658;2023-06-22T05:57:59;10.52;;;9.63;;
76712;SDS011;65640;43.154;25.658;2023-06-22T06:00:25;11.07;;;10.07;;
76712;SDS011;65640;43.154;25.658;2023-06-22T06:02:50;10.55;;;9.48;;
76712;SDS011;65640;43.154;25.658;2023-06-22T06:05:16;13.25;;;9.82;;
76712;SDS011;65640;43.154;25.658;2023-06-22T06:07:41;14.25;;;11.50;;
76712;SDS011;65640;43.154;25.658;2023-06-22T06:10:07;10.73;;;9.63;;
76712;SDS011;65640;43.154;25.658;2023-06-22T06:14:58;11.23;;;10.23;;
76712;SDS011;65640;43.154;25.658;2023-06-22T06:17:24;10.18;;;9.15;;
76712;SDS011;65640;43.154;25.658;2023-06-22T06:22:15;10.50;;;9.60;;
76712;SDS011;65640;43.154;25.658;2023-06-22T06:27:05;9.98;;;9.27;;
76712;SDS011;65640;43.154;25.658;2023-06-22T06:31:57;10.20;;;9.35;;
76712;SDS011;65640;43.154;25.658;2023-06-22T06:34:22;10.05;;;9.15;;
76712;SDS011;65640;43.154;25.658;2023-06-22T06:39:13;10.05;;;9.25;;
76712;SDS011;65640;43.154;25.658;2023-06-22T06:44:03;10.83;;;9.73;;
76712;SDS011;65640;43.154;25.658;2023-06-22T06:48:54;11.52;;;8.50;;
76712;SDS011;65640;43.154;25.658;2023-06-22T06:51:20;15.93;;;9.48;;
76712;SDS011;65640;43.154;25.658;2023-06-22T06:53:45;9.93;;;9.02;;
76712;SDS011;65640;43.154;25.658;2023-06-22T06:56:10;10.77;;;9.65;;
76712;SDS011;65640;43.154;25.658;2023-06-22T06:58:37;11.50;;;9.55;;
76712;SDS011;65640;43.154;25.658;2023-06-22T07:01:06;10.55;;;9.50;;
76712;SDS011;65640;43.154;25.658;2023-06-22T07:05:58;9.18;;;8.27;;
76712;SDS011;65640;43.154;25.658;2023-06-22T07:10:49;9.35;;;8.65;;
76712;SDS011;65640;43.154;25.658;2023-06-22T07:15:40;11.73;;;8.80;;
76712;SDS011;65640;43.154;25.658;2023-06-22T07:20:30;8.23;;;7.50;;
76712;SDS011;65640;43.154;25.658;2023-06-22T07:25:21;9.40;;;8.48;;
76712;SDS011;65640;43.154;25.658;2023-06-22T07:30:22;11.90;;;8.80;;
76712;SDS011;65640;43.154;25.658;2023-06-22T07:32:48;9.88;;;8.98;;
76712;SDS011;65640;43.154;25.658;2023-06-22T07:35:13;12.77;;;8.00;;
76712;SDS011;65640;43.154;25.658;2023-06-22T07:37:41;11.75;;;9.23;;
76712;SDS011;65640;43.154;25.658;2023-06-22T07:40:07;8.80;;;8.18;;
76712;SDS011;65640;43.154;25.658;2023-06-22T07:42:33;8.80;;;8.00;;
76712;SDS011;65640;43.154;25.658;2023-06-22T07:44:58;9.95;;;9.07;;
76712;SDS011;65640;43.154;25.658;2023-06-22T07:47:23;8.68;;;8.15;;
76712;SDS011;65640;43.154;25.658;2023-06-22T07:49:51;8.80;;;8.05;;
76712;SDS011;65640;43.154;25.658;2023-06-22T07:52:19;9.27;;;8.30;;
76712;SDS011;65640;43.154;25.658;2023-06-22T07:54:46;9.60;;;7.90;;
76712;SDS011;65640;43.154;25.658;2023-06-22T07:57:11;8.82;;;7.57;;
76712;SDS011;65640;43.154;25.658;2023-06-22T08:02:02;9.05;;;8.35;;
76712;SDS011;65640;43.154;25.658;2023-06-22T08:04:28;8.60;;;7.72;;
76712;SDS011;65640;43.154;25.658;2023-06-22T08:06:55;8.70;;;7.78;;
76712;SDS011;65640;43.154;25.658;2023-06-22T08:09:21;8.15;;;7.40;;
76712;SDS011;65640;43.154;25.658;2023-06-22T08:14:12;9.32;;;7.55;;
76712;SDS011;65640;43.154;25.658;2023-06-22T08:16:38;7.75;;;7.05;;
76712;SDS011;65640;43.154;25.658;2023-06-22T08:19:03;8.35;;;7.60;;
76712;SDS011;65640;43.154;25.658;2023-06-22T08:21:29;8.15;;;7.20;;
76712;SDS011;65640;43.154;25.658;2023-06-22T08:23:54;7.82;;;7.22;;
76712;SDS011;65640;43.154;25.658;2023-06-22T08:26:19;8.13;;;6.57;;
76712;SDS011;65640;43.154;25.658;2023-06-22T08:28:46;9.45;;;6.72;;
76712;SDS011;65640;43.154;25.658;2023-06-22T08:31:12;7.20;;;6.70;;
76712;SDS011;65640;43.154;25.658;2023-06-22T08:33:39;7.22;;;6.63;;
76712;SDS011;65640;43.154;25.658;2023-06-22T08:36:04;7.72;;;7.07;;
76712;SDS011;65640;43.154;25.658;2023-06-22T08:38:31;8.25;;;7.50;;
76712;SDS011;65640;43.154;25.658;2023-06-22T08:40:56;7.80;;;7.18;;
76712;SDS011;65640;43.154;25.658;2023-06-22T08:43:22;11.85;;;7.50;;
76712;SDS011;65640;43.154;25.658;2023-06-22T08:45:47;8.43;;;7.68;;
76712;SDS011;65640;43.154;25.658;2023-06-22T08:48:13;7.00;;;6.63;;
76712;SDS011;65640;43.154;25.658;2023-06-22T08:50:39;7.55;;;7.00;;
76712;SDS011;65640;43.154;25.658;2023-06-22T08:53:05;8.48;;;7.15;;
76712;SDS011;65640;43.154;25.658;2023-06-22T08:55:31;7.30;;;6.60;;
76712;SDS011;65640;43.154;25.658;2023-06-22T08:57:56;6.82;;;6.43;;
76712;SDS011;65640;43.154;25.658;2023-06-22T09:00:22;6.95;;;6.20;;
76712;SDS011;65640;43.154;25.658;2023-06-22T09:02:47;6.00;;;5.50;;
76712;SDS011;65640;43.154;25.658;2023-06-22T09:05:13;8.35;;;6.35;;
76712;SDS011;65640;43.154;25.658;2023-06-22T09:07:39;6.10;;;5.72;;
76712;SDS011;65640;43.154;25.658;2023-06-22T09:10:05;6.68;;;6.13;;
76712;SDS011;65640;43.154;25.658;2023-06-22T09:12:31;6.50;;;6.10;;
76712;SDS011;65640;43.154;25.658;2023-06-22T09:14:58;6.88;;;6.25;;
76712;SDS011;65640;43.154;25.658;2023-06-22T09:17:26;7.25;;;6.55;;
76712;SDS011;65640;43.154;25.658;2023-06-22T09:19:52;6.78;;;6.15;;
76712;SDS011;65640;43.154;25.658;2023-06-22T09:22:17;6.97;;;6.30;;
76712;SDS011;65640;43.154;25.658;2023-06-22T09:24:42;6.70;;;6.22;;
76712;SDS011;65640;43.154;25.658;2023-06-22T09:27:08;7.30;;;6.80;;
76712;SDS011;65640;43.154;25.658;2023-06-22T09:29:33;6.53;;;5.93;;
76712;SDS011;65640;43.154;25.658;2023-06-22T09:31:59;7.03;;;6.38;;
76712;SDS011;65640;43.154;25.658;2023-06-22T09:34:25;6.40;;;5.97;;
76712;SDS011;65640;43.154;25.658;2023-06-22T09:36:51;7.00;;;6.47;;
76712;SDS011;65640;43.154;25.658;2023-06-22T09:39:17;7.68;;;6.90;;
76712;SDS011;65640;43.154;25.658;2023-06-22T09:41:43;6.68;;;6.28;;
76712;SDS011;65640;43.154;25.658;2023-06-22T09:44:09;6.85;;;6.40;;
76712;SDS011;65640;43.154;25.658;2023-06-22T09:46:34;6.30;;;5.85;;
76712;SDS011;65640;43.154;25.658;2023-06-22T09:49:00;6.15;;;5.75;;
76712;SDS011;65640;43.154;25.658;2023-06-22T09:51:25;6.80;;;6.30;;
76712;SDS011;65640;43.154;25.658;2023-06-22T09:53:51;6.32;;;5.72;;
76712;SDS011;65640;43.154;25.658;2023-06-22T09:56:17;6.25;;;5.63;;
76712;SDS011;65640;43.154;25.658;2023-06-22T09:58:42;6.35;;;5.85;;
76712;SDS011;65640;43.154;25.658;2023-06-22T10:01:09;6.05;;;5.50;;
76712;SDS011;65640;43.154;25.658;2023-06-22T10:03:35;5.80;;;5.40;;
76712;SDS011;65640;43.154;25.658;2023-06-22T10:06:01;5.72;;;5.43;;
76712;SDS011;65640;43.154;25.658;2023-06-22T10:08:27;6.80;;;6.30;;
76712;SDS011;65640;43.154;25.658;2023-06-22T10:10:52;5.40;;;5.07;;
76712;SDS011;65640;43.154;25.658;2023-06-22T10:13:18;5.80;;;5.30;;
76712;SDS011;65640;43.154;25.658;2023-06-22T10:15:44;5.70;;;5.40;;
76712;SDS011;65640;43.154;25.658;2023-06-22T10:18:15;9.95;;;5.35;;
76712;SDS011;65640;43.154;25.658;2023-06-22T10:20:41;6.85;;;5.80;;
76712;SDS011;65640;43.154;25.658;2023-06-22T10:23:06;6.10;;;5.60;;
76712;SDS011;65640;43.154;25.658;2023-06-22T10:25:32;5.60;;;5.20;;
76712;SDS011;65640;43.154;25.658;2023-06-22T10:27:57;5.95;;;5.65;;
76712;SDS011;65640;43.154;25.658;2023-06-22T10:30:23;6.03;;;5.57;;
76712;SDS011;65640;43.154;25.658;2023-06-22T10:32:48;5.78;;;5.30;;
76712;SDS011;65640;43.154;25.658;2023-06-22T10:35:14;5.68;;;5.18;;
76712;SDS011;65640;43.154;25.658;2023-06-22T10:37:44;6.35;;;5.20;;
76712;SDS011;65640;43.154;25.658;2023-06-22T10:40:11;7.07;;;5.70;;
76712;SDS011;65640;43.154;25.658;2023-06-22T10:42:38;5.55;;;5.20;;
76712;SDS011;65640;43.154;25.658;2023-06-22T10:45:03;6.72;;;5.32;;
76712;SDS011;65640;43.154;25.658;2023-06-22T10:47:29;5.70;;;5.20;;
76712;SDS011;65640;43.154;25.658;2023-06-22T10:49:54;5.70;;;5.30;;
76712;SDS011;65640;43.154;25.658;2023-06-22T10:52:20;6.18;;;5.57;;
76712;SDS011;65640;43.154;25.658;2023-06-22T10:54:45;9.55;;;5.22;;
76712;SDS011;65640;43.154;25.658;2023-06-22T10:57:11;6.10;;;5.50;;
76712;SDS011;65640;43.154;25.658;2023-06-22T10:59:36;7.10;;;5.40;;
76712;SDS011;65640;43.154;25.658;2023-06-22T11:02:01;6.05;;;5.60;;
76712;SDS011;65640;43.154;25.658;2023-06-22T11:04:27;5.00;;;4.78;;
76712;SDS011;65640;43.154;25.658;2023-06-22T11:06:53;5.57;;;5.25;;
76712;SDS011;65640;43.154;25.658;2023-06-22T11:09:18;4.93;;;4.45;;
76712;SDS011;65640;43.154;25.658;2023-06-22T11:11:49;5.68;;;5.22;;
76712;SDS011;65640;43.154;25.658;2023-06-22T11:14:18;5.38;;;5.05;;
76712;SDS011;65640;43.154;25.658;2023-06-22T11:16:44;5.10;;;4.80;;
76712;SDS011;65640;43.154;25.658;2023-06-22T11:19:11;5.00;;;4.80;;
76712;SDS011;65640;43.154;25.658;2023-06-22T11:21:36;5.35;;;5.05;;
76712;SDS011;65640;43.154;25.658;2023-06-22T11:24:02;4.70;;;4.40;;
76712;SDS011;65640;43.154;25.658;2023-06-22T11:26:27;4.72;;;4.43;;
76712;SDS011;65640;43.154;25.658;2023-06-22T11:28:53;5.82;;;5.25;;
76712;SDS011;65640;43.154;25.658;2023-06-22T11:31:18;5.18;;;4.78;;
76712;SDS011;65640;43.154;25.658;2023-06-22T11:33:44;5.20;;;4.88;;
76712;SDS011;65640;43.154;25.658;2023-06-22T11:36:11;5.35;;;4.90;;
76712;SDS011;65640;43.154;25.658;2023-06-22T11:38:37;4.82;;;4.57;;
76712;SDS011;65640;43.154;25.658;2023-06-22T11:41:04;10.32;;;5.18;;
76712;SDS011;65640;43.154;25.658;2023-06-22T11:43:34;5.13;;;4.38;;
76712;SDS011;65640;43.154;25.658;2023-06-22T11:46:00;4.68;;;4.40;;
76712;SDS011;65640;43.154;25.658;2023-06-22T11:48:28;5.43;;;4.60;;
76712;SDS011;65640;43.154;25.658;2023-06-22T11:50:53;4.70;;;4.40;;
76712;SDS011;65640;43.154;25.658;2023-06-22T11:53:20;4.78;;;4.50;;
76712;SDS011;65640;43.154;25.658;2023-06-22T11:55:46;4.68;;;4.32;;
76712;SDS011;65640;43.154;25.658;2023-06-22T11:58:12;5.03;;;4.60;;
76712;SDS011;65640;43.154;25.658;2023-06-22T12:00:38;5.03;;;4.20;;
76712;SDS011;65640;43.154;25.658;2023-06-22T12:03:04;4.38;;;4.18;;
76712;SDS011;65640;43.154;25.658;2023-06-22T12:05:29;4.68;;;4.38;;
76712;SDS011;65640;43.154;25.658;2023-06-22T12:07:55;5.18;;;4.78;;
76712;SDS011;65640;43.154;25.658;2023-06-22T12:10:25;4.70;;;4.50;;
76712;SDS011;65640;43.154;25.658;2023-06-22T12:12:53;6.55;;;4.70;;
76712;SDS011;65640;43.154;25.658;2023-06-22T12:15:18;4.88;;;4.57;;
76712;SDS011;65640;43.154;25.658;2023-06-22T12:17:44;4.88;;;4.60;;
76712;SDS011;65640;43.154;25.658;2023-06-22T12:20:09;4.78;;;4.57;;
76712;SDS011;65640;43.154;25.658;2023-06-22T12:22:35;5.70;;;4.63;;
76712;SDS011;65640;43.154;25.658;2023-06-22T12:25:03;4.80;;;4.50;;
76712;SDS011;65640;43.154;25.658;2023-06-22T12:27:28;4.70;;;4.50;;
76712;SDS011;65640;43.154;25.658;2023-06-22T12:29:55;5.35;;;4.95;;
76712;SDS011;65640;43.154;25.658;2023-06-22T12:32:21;4.82;;;4.53;;
76712;SDS011;65640;43.154;25.658;2023-06-22T12:34:46;4.75;;;4.53;;
76712;SDS011;65640;43.154;25.658;2023-06-22T12:37:11;5.20;;;4.70;;
76712;SDS011;65640;43.154;25.658;2023-06-22T12:39:37;4.80;;;4.57;;
76712;SDS011;65640;43.154;25.658;2023-06-22T12:42:02;4.78;;;4.38;;
76712;SDS011;65640;43.154;25.658;2023-06-22T12:44:28;5.68;;;4.97;;
76712;SDS011;65640;43.154;25.658;2023-06-22T12:46:53;4.97;;;4.72;;
76712;SDS011;65640;43.154;25.658;2023-06-22T12:49:19;5.13;;;4.80;;
76712;SDS011;65640;43.154;25.658;2023-06-22T12:51:44;5.78;;;4.85;;
76712;SDS011;65640;43.154;25.658;2023-06-22T12:54:10;5.07;;;4.53;;
76712;SDS011;65640;43.154;25.658;2023-06-22T12:56:37;5.05;;;4.70;;
76712;SDS011;65640;43.154;25.658;2023-06-22T12:59:06;5.22;;;4.80;;
76712;SDS011;65640;43.154;25.658;2023-06-22T13:01:31;8.10;;;4.88;;
76712;SDS011;65640;43.154;25.658;2023-06-22T13:03:58;5.57;;;5.18;;
76712;SDS011;65640;43.154;25.658;2023-06-22T13:06:24;5.10;;;4.70;;
76712;SDS011;65640;43.154;25.658;2023-06-22T13:08:50;4.80;;;4.50;;
76712;SDS011;65640;43.154;25.658;2023-06-22T13:11:15;4.80;;;4.50;;
76712;SDS011;65640;43.154;25.658;2023-06-22T13:13:41;4.57;;;4.38;;
76712;SDS011;65640;43.154;25.658;2023-06-22T13:16:06;4.32;;;4.07;;
76712;SDS011;65640;43.154;25.658;2023-06-22T13:18:32;4.63;;;4.20;;
76712;SDS011;65640;43.154;25.658;2023-06-22T13:21:00;5.85;;;5.10;;
76712;SDS011;65640;43.154;25.658;2023-06-22T13:23:26;5.15;;;4.90;;
76712;SDS011;65640;43.154;25.658;2023-06-22T13:25:52;5.20;;;4.90;;
76712;SDS011;65640;43.154;25.658;2023-06-22T13:28:19;5.55;;;5.15;;
76712;SDS011;65640;43.154;25.658;2023-06-22T13:30:46;6.20;;;5.10;;
76712;SDS011;65640;43.154;25.658;2023-06-22T13:33:12;7.80;;;4.60;;
76712;SDS011;65640;43.154;25.658;2023-06-22T13:35:38;5.80;;;5.00;;
76712;SDS011;65640;43.154;25.658;2023-06-22T13:38:04;5.13;;;4.82;;
76712;SDS011;65640;43.154;25.658;2023-06-22T13:40:30;7.38;;;5.00;;
76712;SDS011;65640;43.154;25.658;2023-06-22T13:42:56;5.35;;;5.05;;
76712;SDS011;65640;43.154;25.658;2023-06-22T13:45:21;8.50;;;4.70;;
76712;SDS011;65640;43.154;25.658;2023-06-22T13:47:47;4.97;;;4.68;;
76712;SDS011;65640;43.154;25.658;2023-06-22T13:50:13;5.65;;;5.22;;
76712;SDS011;65640;43.154;25.658;2023-06-22T13:52:39;5.55;;;5.15;;
76712;SDS011;65640;43.154;25.658;2023-06-22T13:55:04;6.65;;;5.03;;
76712;SDS011;65640;43.154;25.658;2023-06-22T13:57:32;5.20;;;4.80;;
76712;SDS011;65640;43.154;25.658;2023-06-22T13:59:58;5.78;;;4.80;;
76712;SDS011;65640;43.154;25.658;2023-06-22T14:02:25;5.32;;;4.95;;
76712;SDS011;65640;43.154;25.658;2023-06-22T14:04:51;6.05;;;5.22;;
76712;SDS011;65640;43.154;25.658;2023-06-22T14:07:17;5.03;;;4.72;;
76712;SDS011;65640;43.154;25.658;2023-06-22T14:09:44;5.25;;;4.95;;
76712;SDS011;65640;43.154;25.658;2023-06-22T14:12:10;6.30;;;4.88;;
76712;SDS011;65640;43.154;25.658;2023-06-22T14:14:35;5.22;;;4.93;;
76712;SDS011;65640;43.154;25.658;2023-06-22T14:17:01;7.32;;;4.63;;
76712;SDS011;65640;43.154;25.658;2023-06-22T14:19:26;5.60;;;5.00;;
76712;SDS011;65640;43.154;25.658;2023-06-22T14:21:52;5.35;;;4.82;;
76712;SDS011;65640;43.154;25.658;2023-06-22T14:24:17;5.40;;;4.80;;
76712;SDS011;65640;43.154;25.658;2023-06-22T14:26:43;5.10;;;4.70;;
76712;SDS011;65640;43.154;25.658;2023-06-22T14:29:08;5.30;;;4.80;;
76712;SDS011;65640;43.154;25.658;2023-06-22T14:31:33;5.55;;;4.82;;
76712;SDS011;65640;43.154;25.658;2023-06-22T14:33:59;5.25;;;4.85;;
76712;SDS011;65640;43.154;25.658;2023-06-22T14:36:25;7.43;;;4.93;;
76712;SDS011;65640;43.154;25.658;2023-06-22T14:38:51;5.85;;;5.35;;
76712;SDS011;65640;43.154;25.658;2023-06-22T14:41:16;5.53;;;5.22;;
76712;SDS011;65640;43.154;25.658;2023-06-22T14:43:46;5.97;;;5.43;;
76712;SDS011;65640;43.154;25.658;2023-06-22T14:46:14;5.03;;;4.60;;
76712;SDS011;65640;43.154;25.658;2023-06-22T14:48:40;5.80;;;4.55;;
76712;SDS011;65640;43.154;25.658;2023-06-22T14:51:06;4.75;;;4.47;;
76712;SDS011;65640;43.154;25.658;2023-06-22T14:53:32;5.20;;;4.90;;
76712;SDS011;65640;43.154;25.658;2023-06-22T14:55:58;5.05;;;4.65;;
76712;SDS011;65640;43.154;25.658;2023-06-22T14:58:26;5.13;;;4.53;;
76712;SDS011;65640;43.154;25.658;2023-06-22T15:00:51;5.45;;;5.13;;
76712;SDS011;65640;43.154;25.658;2023-06-22T15:03:17;5.30;;;4.85;;
76712;SDS011;65640;43.154;25.658;2023-06-22T15:05:46;5.50;;;5.07;;
76712;SDS011;65640;43.154;25.658;2023-06-22T15:08:12;10.77;;;5.05;;
76712;SDS011;65640;43.154;25.658;2023-06-22T15:10:38;4.78;;;4.57;;
76712;SDS011;65640;43.154;25.658;2023-06-22T15:13:03;5.72;;;5.15;;
76712;SDS011;65640;43.154;25.658;2023-06-22T15:15:29;5.38;;;5.07;;
76712;SDS011;65640;43.154;25.658;2023-06-22T15:17:54;5.88;;;5.57;;
76712;SDS011;65640;43.154;25.658;2023-06-22T15:20:20;5.82;;;5.35;;